Time;durP1;ratioP1;P1;durP2;ratioP2;P2;SDS_P1;SDS_P2;PMS_P1;PMS_P2;Temp;Humidity;BMP_temperature;BMP_pressure;BME280_temperature;BME280_humidity;BME280_pressure;Samples;Min_cycle;Max_cycle;Signal;HPM_P1;HPM_P2
2021/04/12 00:00:22;;;;;;;12.23;4.90;;;;;;;;;;4975165;28;20018;-76
2021/04/12 00:02:51;;;;;;;10.02;4.90;;;;;;;;;;4992413;28;20023;-77
2021/04/12 00:05:29;;;;;;;8.27;4.82;;;;;;;;;;4974732;28;20077;-76
2021/04/12 00:08:03;;;;;;;10.45;5.55;;;;;;;;;;4992352;28;20033;-77
2021/04/12 00:10:32;;;;;;;12.27;5.18;;;;;;;;;;4974948;28;20025;-77
2021/04/12 00:13:28;;;;;;;9.48;5.20;;;;;;;;;;4975030;28;20022;-77
2021/04/12 00:16:09;;;;;;;10.15;5.07;;;;;;;;;;4973292;28;20042;-76
2021/04/12 00:18:45;;;;;;;9.77;4.78;;;;;;;;;;4990887;28;20077;-76
2021/04/12 00:21:11;;;;;;;8.15;4.35;;;;;;;;;;4974361;28;20129;-79
2021/04/12 00:23:45;;;;;;;9.32;4.63;;;;;;;;;;4992250;28;20058;-77
2021/04/12 00:26:14;;;;;;;9.45;4.55;;;;;;;;;;4992103;28;20022;-77
2021/04/12 00:28:43;;;;;;;12.05;5.25;;;;;;;;;;4973728;28;20033;-76
2021/04/12 00:31:44;;;;;;;8.48;4.47;;;;;;;;;;4991272;28;20026;-77
2021/04/12 00:34:20;;;;;;;10.20;5.15;;;;;;;;;;4911625;29;20441;-76
2021/04/12 00:36:57;;;;;;;9.15;4.57;;;;;;;;;;4981176;28;20085;-78
2021/04/12 00:39:31;;;;;;;10.02;4.70;;;;;;;;;;4992169;28;20057;-78
2021/04/12 00:42:16;;;;;;;9.18;4.70;;;;;;;;;;4991945;28;20472;-78
2021/04/12 00:44:42;;;;;;;10.25;4.90;;;;;;;;;;4992222;28;20036;-78
2021/04/12 00:47:11;;;;;;;11.80;5.10;;;;;;;;;;4974967;28;20395;-78
2021/04/12 00:49:52;;;;;;;11.80;5.07;;;;;;;;;;4974852;28;20037;-78
2021/04/12 00:52:36;;;;;;;9.90;4.93;;;;;;;;;;4992197;28;20101;-79
2021/04/12 00:55:11;;;;;;;10.70;4.78;;;;;;;;;;4991767;28;20031;-78
2021/04/12 00:57:40;;;;;;;9.85;4.50;;;;;;;;;;4992103;28;20053;-77
2021/04/12 01:00:12;;;;;;;9.80;4.88;;;;;;;;;;4974490;28;20476;-78
2021/04/12 01:02:47;;;;;;;8.85;4.57;;;;;;;;;;4992279;28;20026;-78
2021/04/12 01:05:13;;;;;;;12.45;5.78;;;;;;;;;;4992187;28;20062;-78
2021/04/12 01:07:55;;;;;;;10.50;5.53;;;;;;;;;;4975061;28;20057;-78
2021/04/12 01:10:21;;;;;;;11.75;5.13;;;;;;;;;;4996255;28;20042;-77
2021/04/12 01:13:05;;;;;;;10.32;5.10;;;;;;;;;;4978585;28;20023;-77
2021/04/12 01:15:45;;;;;;;10.02;5.18;;;;;;;;;;4978634;28;20041;-77
2021/04/12 01:18:14;;;;;;;10.80;5.13;;;;;;;;;;4995891;28;20064;-77
2021/04/12 01:20:43;;;;;;;10.65;4.80;;;;;;;;;;4995699;28;20025;-77
2021/04/12 01:23:28;;;;;;;9.90;5.10;;;;;;;;;;4978310;28;20030;-77
2021/04/12 01:26:03;;;;;;;9.43;4.90;;;;;;;;;;4978328;28;20356;-77
2021/04/12 01:28:48;;;;;;;10.88;5.50;;;;;;;;;;4995843;28;20031;-77
2021/04/12 01:31:33;;;;;;;8.88;5.35;;;;;;;;;;4978265;28;20026;-77
2021/04/12 01:34:05;;;;;;;8.32;4.78;;;;;;;;;;4995561;28;20069;-77
2021/04/12 01:36:49;;;;;;;15.77;5.83;;;;;;;;;;4995544;28;20085;-77
2021/04/12 01:39:39;;;;;;;9.32;4.55;;;;;;;;;;4978028;28;20022;-77
2021/04/12 01:42:17;;;;;;;9.25;4.70;;;;;;;;;;4995613;28;20026;-77
2021/04/12 01:44:48;;;;;;;10.32;4.80;;;;;;;;;;4995549;28;20045;-77
2021/04/12 01:47:17;;;;;;;9.60;5.18;;;;;;;;;;4977875;28;20026;-79
2021/04/12 01:49:59;;;;;;;10.88;4.85;;;;;;;;;;4995399;28;20030;-77
2021/04/12 01:52:44;;;;;;;9.82;5.43;;;;;;;;;;4995241;28;20026;-78
2021/04/12 01:55:22;;;;;;;8.60;4.57;;;;;;;;;;4995158;28;20088;-78
2021/04/12 01:58:06;;;;;;;10.00;5.00;;;;;;;;;;4995256;28;20165;-80
2021/04/12 02:00:35;;;;;;;10.88;5.00;;;;;;;;;;4995069;28;20027;-80
2021/04/12 02:03:12;;;;;;;11.75;5.55;;;;;;;;;;4994980;28;20109;-78
2021/04/12 02:05:44;;;;;;;9.00;5.28;;;;;;;;;;4977582;28;20033;-78
2021/04/12 02:08:10;;;;;;;10.65;5.57;;;;;;;;;;4977688;28;20061;-78
2021/04/12 02:10:55;;;;;;;10.30;5.07;;;;;;;;;;4995051;28;20022;-77
2021/04/12 02:13:24;;;;;;;8.95;4.93;;;;;;;;;;4977558;28;20029;-77
2021/04/12 02:16:06;;;;;;;10.23;5.22;;;;;;;;;;4977334;28;20085;-77
2021/04/12 02:18:51;;;;;;;11.52;4.97;;;;;;;;;;4977124;28;20031;-77
2021/04/12 02:21:17;;;;;;;10.45;5.20;;;;;;;;;;4976093;28;20082;-78
2021/04/12 02:23:58;;;;;;;9.48;4.80;;;;;;;;;;4994571;28;20613;-78
2021/04/12 02:26:42;;;;;;;9.73;4.78;;;;;;;;;;4977089;28;20117;-78
2021/04/12 02:29:11;;;;;;;10.50;5.28;;;;;;;;;;4977155;28;20069;-78
2021/04/12 02:31:47;;;;;;;12.30;5.63;;;;;;;;;;4977283;28;20028;-78
2021/04/12 02:34:39;;;;;;;10.55;4.95;;;;;;;;;;4977148;28;20036;-79
2021/04/12 02:37:24;;;;;;;9.13;5.13;;;;;;;;;;4991749;28;20034;-80
2021/04/12 02:39:53;;;;;;;10.93;5.15;;;;;;;;;;4993067;28;20490;-78
2021/04/12 02:42:28;;;;;;;10.15;5.38;;;;;;;;;;4992837;28;20022;-77
2021/04/12 02:44:56;;;;;;;10.13;5.05;;;;;;;;;;4976743;28;20026;-76
2021/04/12 02:47:28;;;;;;;10.60;5.18;;;;;;;;;;4994336;28;20037;-78
2021/04/12 02:49:57;;;;;;;9.07;4.85;;;;;;;;;;4994247;28;20019;-77
2021/04/12 02:52:31;;;;;;;10.65;5.68;;;;;;;;;;4994195;28;20015;-77
2021/04/12 02:55:16;;;;;;;9.27;4.97;;;;;;;;;;4994077;28;20061;-78
2021/04/12 02:58:05;;;;;;;10.68;4.55;;;;;;;;;;4976479;28;20027;-77
2021/04/12 03:00:41;;;;;;;12.43;5.15;;;;;;;;;;4958394;28;20077;-77
2021/04/12 03:03:21;;;;;;;10.50;5.13;;;;;;;;;;4993922;28;20084;-78
2021/04/12 03:05:53;;;;;;;12.70;4.90;;;;;;;;;;4994223;28;20033;-78
2021/04/12 03:08:25;;;;;;;12.48;4.70;;;;;;;;;;4993997;28;20026;-79
2021/04/12 03:11:00;;;;;;;10.98;5.80;;;;;;;;;;4994059;28;20034;-77
2021/04/12 03:13:45;;;;;;;9.93;5.55;;;;;;;;;;4993940;28;20026;-77
2021/04/12 03:16:16;;;;;;;10.32;5.47;;;;;;;;;;4976313;28;20134;-77
2021/04/12 03:18:48;;;;;;;10.60;5.97;;;;;;;;;;4976391;28;20026;-78
2021/04/12 03:21:33;;;;;;;11.82;5.10;;;;;;;;;;4976059;28;20044;-79
2021/04/12 03:24:06;;;;;;;8.63;5.22;;;;;;;;;;4981139;28;20092;-78
2021/04/12 03:26:42;;;;;;;13.02;5.57;;;;;;;;;;4989200;28;20124;-78
2021/04/12 03:29:40;;;;;;;9.88;5.32;;;;;;;;;;5013147;28;20024;-78
2021/04/12 03:32:25;;;;;;;9.75;5.35;;;;;;;;;;4958947;28;20038;-78
2021/04/12 03:34:51;;;;;;;10.65;5.18;;;;;;;;;;5013086;28;20108;-78
2021/04/12 03:37:28;;;;;;;8.88;5.03;;;;;;;;;;5012948;28;20063;-78
2021/04/12 03:40:17;;;;;;;9.73;5.70;;;;;;;;;;5012796;28;20497;-78
2021/04/12 03:42:56;;;;;;;13.35;5.35;;;;;;;;;;5012910;28;20029;-78
2021/04/12 03:45:41;;;;;;;13.27;5.25;;;;;;;;;;4995322;28;20022;-78
2021/04/12 03:48:07;;;;;;;11.35;5.40;;;;;;;;;;5012980;28;20076;-78
2021/04/12 03:51:02;;;;;;;10.23;5.43;;;;;;;;;;5012790;28;20102;-78
2021/04/12 03:53:31;;;;;;;13.68;5.18;;;;;;;;;;4925870;28;20076;-78
2021/04/12 03:56:16;;;;;;;10.70;5.28;;;;;;;;;;5012602;28;20137;-78
2021/04/12 03:58:54;;;;;;;10.02;5.10;;;;;;;;;;5012449;28;20030;-78
2021/04/12 04:01:40;;;;;;;9.20;4.72;;;;;;;;;;4994977;28;20014;-77
2021/04/12 04:04:15;;;;;;;11.77;5.45;;;;;;;;;;4955570;28;20030;-78
2021/04/12 04:06:56;;;;;;;10.20;4.95;;;;;;;;;;4999456;28;20186;-77
2021/04/12 04:09:28;;;;;;;10.48;5.43;;;;;;;;;;4974969;28;20022;-78
2021/04/12 04:12:13;;;;;;;9.95;5.53;;;;;;;;;;4973852;28;20058;-78
2021/04/12 04:14:48;;;;;;;11.57;5.50;;;;;;;;;;4975179;28;20080;-78
2021/04/12 04:17:20;;;;;;;10.80;5.28;;;;;;;;;;4992429;28;20038;-78
2021/04/12 04:20:05;;;;;;;11.13;5.63;;;;;;;;;;4992753;28;20023;-78
2021/04/12 04:22:49;;;;;;;10.55;5.68;;;;;;;;;;4992507;28;20074;-78
2021/04/12 04:25:28;;;;;;;14.50;6.25;;;;;;;;;;4992738;28;20106;-79
2021/04/12 04:28:00;;;;;;;12.43;5.43;;;;;;;;;;4975175;28;20026;-78
2021/04/12 04:31:02;;;;;;;10.73;5.97;;;;;;;;;;4975204;28;20058;-78
2021/04/12 04:33:46;;;;;;;9.57;5.65;;;;;;;;;;4951058;28;20027;-78
2021/04/12 04:36:31;;;;;;;12.18;5.82;;;;;;;;;;4988925;28;20053;-78
2021/04/12 04:39:03;;;;;;;10.15;5.47;;;;;;;;;;4992501;28;20029;-77
2021/04/12 04:41:37;;;;;;;10.23;5.53;;;;;;;;;;4992347;28;20419;-78
2021/04/12 04:44:30;;;;;;;11.52;5.88;;;;;;;;;;4974084;28;20041;-78
2021/04/12 04:47:15;;;;;;;10.88;6.28;;;;;;;;;;4990355;28;20031;-78
2021/04/12 04:50:00;;;;;;;12.70;6.25;;;;;;;;;;4974772;28;20034;-78
2021/04/12 04:52:29;;;;;;;11.40;6.22;;;;;;;;;;4975112;28;20406;-78
2021/04/12 04:54:58;;;;;;;11.30;6.00;;;;;;;;;;4992277;28;20046;-78
2021/04/12 04:57:43;;;;;;;12.82;5.93;;;;;;;;;;4974643;28;20040;-78
2021/04/12 05:00:18;;;;;;;9.40;5.65;;;;;;;;;;4989764;28;20030;-77
2021/04/12 05:02:56;;;;;;;13.40;5.72;;;;;;;;;;4972972;28;20026;-78
2021/04/12 05:05:22;;;;;;;10.38;6.53;;;;;;;;;;4990247;28;20133;-78
2021/04/12 05:07:54;;;;;;;15.05;7.13;;;;;;;;;;4991496;28;20101;-78
2021/04/12 05:10:20;;;;;;;12.90;6.35;;;;;;;;;;4974629;28;20031;-78
2021/04/12 05:12:53;;;;;;;13.32;6.75;;;;;;;;;;4991905;28;20019;-79
2021/04/12 05:15:37;;;;;;;14.00;6.65;;;;;;;;;;4992078;28;20027;-78
2021/04/12 05:18:22;;;;;;;11.75;6.80;;;;;;;;;;4991946;28;20053;-78
2021/04/12 05:21:07;;;;;;;12.48;7.07;;;;;;;;;;4991842;28;20037;-79
2021/04/12 05:23:39;;;;;;;12.90;7.15;;;;;;;;;;4974339;28;20092;-78
2021/04/12 05:26:08;;;;;;;16.15;7.45;;;;;;;;;;4974014;28;20080;-79
2021/04/12 05:28:35;;;;;;;14.50;7.40;;;;;;;;;;4973312;28;20049;-78
2021/04/12 05:31:08;;;;;;;12.82;6.90;;;;;;;;;;4973023;28;20555;-78
2021/04/12 05:33:53;;;;;;;14.18;6.32;;;;;;;;;;4991031;28;20053;-78
2021/04/12 05:36:39;;;;;;;12.98;7.00;;;;;;;;;;4991297;28;20038;-78
2021/04/12 05:39:24;;;;;;;16.45;6.63;;;;;;;;;;4984546;28;20038;-78
2021/04/12 05:41:56;;;;;;;12.05;6.20;;;;;;;;;;4974244;28;20084;-78
2021/04/12 05:44:41;;;;;;;11.25;6.10;;;;;;;;;;4974258;28;20031;-79
2021/04/12 05:47:07;;;;;;;13.73;6.97;;;;;;;;;;4974142;28;20129;-78
2021/04/12 05:49:40;;;;;;;17.58;7.30;;;;;;;;;;4991604;28;20037;-78
2021/04/12 05:52:19;;;;;;;14.77;6.65;;;;;;;;;;4974112;28;20023;-79
2021/04/12 05:55:04;;;;;;;12.70;7.35;;;;;;;;;;4993554;28;20033;-79
2021/04/12 05:57:35;;;;;;;12.95;5.78;;;;;;;;;;4977743;28;20038;-79
2021/04/12 06:00:20;;;;;;;10.82;5.88;;;;;;;;;;4977974;28;20026;-79
2021/04/12 06:02:55;;;;;;;12.48;6.15;;;;;;;;;;4995145;28;20070;-78
2021/04/12 06:05:30;;;;;;;14.88;6.55;;;;;;;;;;4995323;28;20028;-79
2021/04/12 06:07:56;;;;;;;12.35;6.72;;;;;;;;;;4994396;28;20023;-79
2021/04/12 06:10:41;;;;;;;12.00;6.53;;;;;;;;;;4994077;28;20102;-79
2021/04/12 06:13:16;;;;;;;15.25;6.55;;;;;;;;;;4994197;28;20577;-79
2021/04/12 06:16:08;;;;;;;13.80;5.93;;;;;;;;;;4994193;28;20109;-79
2021/04/12 06:18:34;;;;;;;13.10;6.97;;;;;;;;;;4974576;28;20069;-79
2021/04/12 06:21:19;;;;;;;10.35;5.53;;;;;;;;;;4976433;28;20325;-79
2021/04/12 06:23:54;;;;;;;12.07;6.38;;;;;;;;;;4995262;28;20053;-80
2021/04/12 06:26:32;;;;;;;12.43;6.65;;;;;;;;;;4977691;28;20031;-79
2021/04/12 06:29:10;;;;;;;10.20;5.72;;;;;;;;;;4977702;28;20033;-79
2021/04/12 06:31:55;;;;;;;12.75;6.25;;;;;;;;;;4981462;28;20030;-78
2021/04/12 06:34:36;;;;;;;12.38;6.60;;;;;;;;;;5002414;28;20022;-75
2021/04/12 06:37:24;;;;;;;9.25;5.32;;;;;;;;;;4982591;28;20022;-75
2021/04/12 06:40:13;;;;;;;11.52;6.10;;;;;;;;;;5002266;28;20025;-77
2021/04/12 06:42:48;;;;;;;12.93;6.53;;;;;;;;;;5004771;28;20049;-76
2021/04/12 06:45:33;;;;;;;14.00;6.00;;;;;;;;;;5013511;28;20022;-76
2021/04/12 06:48:18;;;;;;;15.70;5.97;;;;;;;;;;4995845;28;20032;-77
2021/04/12 06:51:02;;;;;;;12.65;5.97;;;;;;;;;;4996224;28;20034;-78
2021/04/12 06:53:37;;;;;;;11.60;5.55;;;;;;;;;;4993792;28;20072;-77
2021/04/12 06:56:23;;;;;;;13.65;6.60;;;;;;;;;;4993802;28;20451;-76
2021/04/12 06:58:49;;;;;;;13.45;5.95;;;;;;;;;;4953974;28;20031;-75
2021/04/12 07:01:28;;;;;;;14.73;5.82;;;;;;;;;;4975965;28;20120;-75
2021/04/12 07:04:12;;;;;;;12.63;6.07;;;;;;;;;;4993635;28;20467;-78
2021/04/12 07:06:43;;;;;;;13.60;5.53;;;;;;;;;;4992592;28;20096;-76
2021/04/12 07:09:13;;;;;;;7.75;4.60;;;;;;;;;;4975627;28;20022;-77
2021/04/12 07:11:43;;;;;;;12.02;5.22;;;;;;;;;;4993774;28;20053;-75
2021/04/12 07:14:15;;;;;;;13.23;5.70;;;;;;;;;;4975948;28;20026;-76
2021/04/12 07:16:44;;;;;;;10.50;5.32;;;;;;;;;;4993188;28;20089;-75
2021/04/12 07:19:13;;;;;;;9.13;4.70;;;;;;;;;;4975781;28;20088;-77
2021/04/12 07:21:54;;;;;;;11.02;5.07;;;;;;;;;;4975442;28;20042;-78
2021/04/12 07:24:23;;;;;;;8.95;4.50;;;;;;;;;;4975407;28;20061;-75
2021/04/12 07:27:16;;;;;;;11.82;4.55;;;;;;;;;;4985295;28;20384;-77
2021/04/12 07:29:45;;;;;;;8.13;4.07;;;;;;;;;;4934775;28;20031;-76
2021/04/12 07:32:30;;;;;;;7.25;3.90;;;;;;;;;;4997789;28;20039;-76
2021/04/12 07:35:08;;;;;;;10.10;4.10;;;;;;;;;;4994997;28;20018;-77
2021/04/12 07:37:40;;;;;;;11.57;4.35;;;;;;;;;;4955818;28;20034;-77
2021/04/12 07:40:25;;;;;;;8.80;4.03;;;;;;;;;;4956087;28;20019;-77
2021/04/12 07:43:13;;;;;;;10.23;3.40;;;;;;;;;;4997386;28;20520;-79
2021/04/12 07:46:00;;;;;;;8.68;4.20;;;;;;;;;;5008765;28;20014;-79
2021/04/12 07:48:39;;;;;;;7.72;4.05;;;;;;;;;;4975480;28;20061;-79
2021/04/12 07:51:23;;;;;;;8.32;4.07;;;;;;;;;;4992025;28;20125;-77
2021/04/12 07:53:49;;;;;;;7.40;3.85;;;;;;;;;;5012251;28;20032;-75
2021/04/12 07:56:32;;;;;;;7.03;3.58;;;;;;;;;;4994242;28;20519;-76
2021/04/12 07:58:58;;;;;;;;;;;;;;;;;;5004830;28;20080;-76
2021/04/12 08:01:24;;;;;;;7.30;3.83;;;;;;;;;;4975242;28;19906;-76
2021/04/12 08:04:09;;;;;;;10.23;3.95;;;;;;;;;;4975104;28;20049;-77
2021/04/12 08:06:35;;;;;;;7.55;3.75;;;;;;;;;;4992448;28;20030;-77
2021/04/12 08:09:20;;;;;;;9.30;4.03;;;;;;;;;;4992422;28;20105;-76
2021/04/12 08:11:52;;;;;;;7.00;3.80;;;;;;;;;;4979069;28;20052;-76
2021/04/12 08:14:18;;;;;;;8.65;3.17;;;;;;;;;;4975002;28;20045;-76
2021/04/12 08:17:05;;;;;;;7.15;3.75;;;;;;;;;;4974477;28;20038;-76
2021/04/12 08:19:37;;;;;;;9.32;3.30;;;;;;;;;;4998597;28;20041;-78
2021/04/12 08:22:24;;;;;;;11.23;3.95;;;;;;;;;;4983319;28;20050;-77
2021/04/12 08:25:04;;;;;;;9.02;3.67;;;;;;;;;;5008597;28;20018;-76
2021/04/12 08:27:49;;;;;;;10.82;3.47;;;;;;;;;;5002621;28;20141;-77
2021/04/12 08:30:18;;;;;;;12.15;3.53;;;;;;;;;;4984886;28;20030;-79
2021/04/12 08:32:44;;;;;;;10.73;3.40;;;;;;;;;;4974437;28;20022;-78
2021/04/12 08:35:13;;;;;;;13.48;3.85;;;;;;;;;;4974509;28;20037;-77
2021/04/12 08:37:58;;;;;;;6.45;3.80;;;;;;;;;;4974562;28;20045;-77
2021/04/12 08:40:24;;;;;;;7.68;3.20;;;;;;;;;;4974614;28;20037;-76
2021/04/12 08:42:56;;;;;;;9.07;3.40;;;;;;;;;;4991849;28;20026;-79
2021/04/12 08:45:41;;;;;;;6.35;3.10;;;;;;;;;;4979442;28;20077;-77
2021/04/12 08:48:07;;;;;;;9.40;3.35;;;;;;;;;;5005428;28;20025;-78
2021/04/12 08:50:44;;;;;;;9.25;3.38;;;;;;;;;;4995743;28;20496;-77
2021/04/12 08:53:13;;;;;;;10.15;2.65;;;;;;;;;;4976815;28;20057;-77
2021/04/12 08:55:46;;;;;;;6.75;2.97;;;;;;;;;;4974180;28;20108;-78
2021/04/12 08:58:12;;;;;;;19.92;4.35;;;;;;;;;;4974393;28;20376;-78
2021/04/12 09:00:57;;;;;;;11.77;3.20;;;;;;;;;;4974137;28;20018;-82
2021/04/12 09:03:29;;;;;;;10.50;2.90;;;;;;;;;;4984766;28;20015;-81
2021/04/12 09:05:55;;;;;;;;;;;;;;;;;;4987397;28;20026;-80
2021/04/12 09:08:21;;;;;;;8.32;2.47;;;;;;;;;;4990070;28;19913;-81
2021/04/12 09:10:53;;;;;;;7.95;2.88;;;;;;;;;;4974217;28;20026;-80
2021/04/12 09:13:34;;;;;;;8.80;3.03;;;;;;;;;;4985255;28;20026;-80
2021/04/12 09:16:06;;;;;;;8.73;2.85;;;;;;;;;;5011082;28;20123;-81
2021/04/12 09:18:32;;;;;;;8.25;2.58;;;;;;;;;;4993419;28;20466;-81
2021/04/12 09:21:17;;;;;;;7.82;2.30;;;;;;;;;;4993786;28;20034;-80
2021/04/12 09:23:43;;;;;;;7.18;2.88;;;;;;;;;;4974130;28;20125;-80
2021/04/12 09:26:12;;;;;;;11.15;2.50;;;;;;;;;;4989274;28;20029;-79
2021/04/12 09:28:41;;;;;;;7.72;2.90;;;;;;;;;;4972391;28;20571;-81
2021/04/12 09:31:07;;;;;;;5.25;2.10;;;;;;;;;;4976495;28;20044;-81
2021/04/12 09:33:53;;;;;;;6.15;2.53;;;;;;;;;;5011486;28;20101;-75
2021/04/12 09:36:24;;;;;;;11.90;2.60;;;;;;;;;;4995421;28;20094;-78
2021/04/12 09:39:09;;;;;;;8.15;2.88;;;;;;;;;;4995497;28;20029;-81
2021/04/12 09:41:54;;;;;;;8.07;2.10;;;;;;;;;;4995059;28;20034;-81
2021/04/12 09:44:28;;;;;;;7.60;2.00;;;;;;;;;;4977595;28;20488;-73
2021/04/12 09:47:00;;;;;;;6.38;2.13;;;;;;;;;;4994975;28;20042;-73
2021/04/12 09:49:45;;;;;;;5.95;2.00;;;;;;;;;;4977903;28;20120;-77
2021/04/12 09:52:11;;;;;;;4.82;1.83;;;;;;;;;;4993466;28;20101;-78
2021/04/12 09:54:40;;;;;;;5.80;1.88;;;;;;;;;;4974532;28;20425;-79
2021/04/12 09:57:25;;;;;;;7.47;2.30;;;;;;;;;;4989044;28;20027;-76
2021/04/12 10:00:14;;;;;;;5.15;2.28;;;;;;;;;;4973971;28;20026;-76
2021/04/12 10:03:13;;;;;;;6.47;2.00;;;;;;;;;;4940027;28;20121;-72
2021/04/12 10:06:12;;;;;;;4.38;1.73;;;;;;;;;;4975807;28;20038;-73
2021/04/12 10:08:38;;;;;;;4.72;1.55;;;;;;;;;;4968646;28;20561;-75
2021/04/12 10:11:08;;;;;;;5.25;1.80;;;;;;;;;;4994502;28;20721;-74
2021/04/12 10:13:42;;;;;;;3.33;1.40;;;;;;;;;;4993902;28;20123;-78
2021/04/12 10:16:11;;;;;;;6.85;1.80;;;;;;;;;;4977303;28;20100;-74
2021/04/12 10:18:46;;;;;;;6.30;1.95;;;;;;;;;;4995145;28;20097;-80
2021/04/12 10:21:12;;;;;;;5.20;1.45;;;;;;;;;;4994526;28;20035;-80
2021/04/12 10:23:38;;;;;;;7.00;1.58;;;;;;;;;;4995269;28;20030;-78
2021/04/12 10:26:22;;;;;;;6.35;1.67;;;;;;;;;;4994899;28;20022;-78
2021/04/12 10:28:50;;;;;;;3.95;1.40;;;;;;;;;;4977561;28;20026;-78
2021/04/12 10:31:26;;;;;;;6.28;1.50;;;;;;;;;;4995090;28;20030;-79
2021/04/12 10:34:12;;;;;;;2.95;1.30;;;;;;;;;;4995184;28;20014;-74
2021/04/12 10:36:46;;;;;;;3.80;1.40;;;;;;;;;;4984295;28;20136;-79
2021/04/12 10:39:20;;;;;;;4.55;1.50;;;;;;;;;;4983722;28;20499;-80
2021/04/12 10:41:49;;;;;;;6.82;1.40;;;;;;;;;;4978904;28;20026;-79
2021/04/12 10:44:36;;;;;;;6.72;1.83;;;;;;;;;;4979843;28;20049;-79
2021/04/12 10:47:20;;;;;;;3.03;1.08;;;;;;;;;;4995602;28;20022;-78
2021/04/12 10:49:49;;;;;;;3.45;1.33;;;;;;;;;;4981842;28;20604;-76
2021/04/12 10:52:15;;;;;;;4.20;1.15;;;;;;;;;;4993858;28;20022;-76
2021/04/12 10:54:41;;;;;;;5.13;1.40;;;;;;;;;;4976189;28;20027;-75
2021/04/12 10:57:19;;;;;;;5.28;1.52;;;;;;;;;;4976036;28;20057;-77
2021/04/12 10:59:52;;;;;;;3.53;1.35;;;;;;;;;;4976058;28;20022;-75
2021/04/12 11:02:36;;;;;;;5.03;1.50;;;;;;;;;;4999313;28;20483;-77
2021/04/12 11:05:05;;;;;;;3.88;1.25;;;;;;;;;;4993141;28;20029;-68
2021/04/12 11:07:34;;;;;;;3.88;1.13;;;;;;;;;;4979256;28;20125;-74
2021/04/12 11:10:03;;;;;;;2.78;1.20;;;;;;;;;;4994219;28;20549;-79
2021/04/12 11:12:38;;;;;;;2.50;0.95;;;;;;;;;;4993959;28;20109;-71
2021/04/12 11:15:14;;;;;;;5.60;1.40;;;;;;;;;;4976499;28;20023;-75
2021/04/12 11:17:45;;;;;;;4.28;1.33;;;;;;;;;;4993862;28;20046;-73
2021/04/12 11:20:17;;;;;;;3.67;1.02;;;;;;;;;;4974648;28;20023;-84
2021/04/12 11:22:59;;;;;;;4.20;1.08;;;;;;;;;;4980191;28;20061;-76
2021/04/12 11:25:28;;;;;;;3.00;1.20;;;;;;;;;;4990786;28;20019;-78
2021/04/12 11:27:57;;;;;;;3.10;1.13;;;;;;;;;;4974262;28;20019;-74
2021/04/12 11:30:23;;;;;;;4.28;1.00;;;;;;;;;;4973006;28;20034;-75
2021/04/12 11:33:07;;;;;;;5.20;1.33;;;;;;;;;;4974685;28;20030;-81
2021/04/12 11:35:40;;;;;;;1.63;0.75;;;;;;;;;;4974393;28;20475;-78
2021/04/12 11:38:11;;;;;;;3.72;0.90;;;;;;;;;;4972408;28;20031;-74
2021/04/12 11:41:03;;;;;;;2.83;1.10;;;;;;;;;;4986379;28;20045;-75
2021/04/12 11:43:33;;;;;;;5.03;1.20;;;;;;;;;;4963815;28;20042;-71
2021/04/12 11:45:59;;;;;;;4.05;1.02;;;;;;;;;;4992894;28;20045;-74
2021/04/12 11:48:29;;;;;;;3.72;1.27;;;;;;;;;;4992972;28;20026;-74
2021/04/12 11:51:01;;;;;;;2.80;0.98;;;;;;;;;;4978182;28;20101;-72
2021/04/12 11:53:27;;;;;;;2.50;0.95;;;;;;;;;;4987331;28;20521;-74
2021/04/12 11:55:59;;;;;;;4.72;1.25;;;;;;;;;;4998705;28;20034;-74
2021/04/12 11:58:34;;;;;;;4.72;1.08;;;;;;;;;;4992645;28;20118;-73
2021/04/12 12:01:04;;;;;;;5.65;1.50;;;;;;;;;;4993177;28;20105;-75
2021/04/12 12:03:39;;;;;;;3.22;1.10;;;;;;;;;;4992904;28;20022;-78
2021/04/12 12:06:31;;;;;;;7.90;1.40;;;;;;;;;;4975599;28;20177;-77
2021/04/12 12:09:16;;;;;;;4.40;0.97;;;;;;;;;;4992857;28;20042;-78
2021/04/12 12:11:57;;;;;;;5.05;1.17;;;;;;;;;;5003658;28;20021;-76
2021/04/12 12:14:43;;;;;;;3.43;1.00;;;;;;;;;;4983559;28;20109;-75
2021/04/12 12:17:20;;;;;;;7.60;1.30;;;;;;;;;;4979114;28;20660;-83
2021/04/12 12:19:59;;;;;;;1.90;0.80;;;;;;;;;;4993910;28;20028;-84
2021/04/12 12:22:28;;;;;;;5.95;1.50;;;;;;;;;;4975427;28;20042;-80
2021/04/12 12:25:13;;;;;;;4.50;1.33;;;;;;;;;;4975504;28;20033;-79
2021/04/12 12:27:42;;;;;;;3.80;1.10;;;;;;;;;;4986967;28;20559;-80
2021/04/12 12:30:12;;;;;;;3.65;1.23;;;;;;;;;;4975120;28;20041;-82
2021/04/12 12:32:41;;;;;;;2.30;1.00;;;;;;;;;;4978431;28;20022;-79
2021/04/12 12:35:14;;;;;;;4.78;1.20;;;;;;;;;;4975386;28;20026;-81
2021/04/12 12:37:40;;;;;;;;;;;;;;;;;;4975734;28;20041;-80
2021/04/12 12:40:12;;;;;;;5.18;1.42;;;;;;;;;;4992901;28;19906;-77
2021/04/12 12:42:41;;;;;;;3.58;1.42;;;;;;;;;;4975376;28;20022;-79
2021/04/12 12:45:08;;;;;;;3.58;1.15;;;;;;;;;;4995020;28;20022;-78
2021/04/12 12:47:37;;;;;;;7.60;1.60;;;;;;;;;;4992558;28;20030;-77
2021/04/12 12:50:06;;;;;;;2.70;0.82;;;;;;;;;;4992750;28;20022;-77
2021/04/12 12:52:37;;;;;;;4.78;1.20;;;;;;;;;;4974917;28;20022;-78
2021/04/12 12:55:06;;;;;;;7.10;1.30;;;;;;;;;;4992566;28;20026;-82
2021/04/12 12:57:33;;;;;;;2.95;1.08;;;;;;;;;;4992571;28;20038;-82
2021/04/12 13:00:11;;;;;;;5.78;1.27;;;;;;;;;;4993402;28;20032;-85
2021/04/12 13:02:39;;;;;;;7.40;1.40;;;;;;;;;;4993788;28;20058;-81
2021/04/12 13:05:08;;;;;;;5.82;1.75;;;;;;;;;;4991545;28;20181;-79
2021/04/12 13:07:35;;;;;;;4.65;1.40;;;;;;;;;;4992005;28;20593;-80
2021/04/12 13:10:05;;;;;;;4.05;1.48;;;;;;;;;;4992523;28;20030;-86
2021/04/12 13:12:36;;;;;;;12.02;1.52;;;;;;;;;;4974639;28;20026;-80
2021/04/12 13:15:19;;;;;;;4.95;1.50;;;;;;;;;;4991611;28;20491;-77
2021/04/12 13:17:45;;;;;;;4.32;1.20;;;;;;;;;;4991689;28;20034;-78
2021/04/12 13:20:11;;;;;;;3.83;1.20;;;;;;;;;;4991602;28;20103;-78
2021/04/12 13:22:40;;;;;;;5.40;1.42;;;;;;;;;;4973769;28;20137;-80
2021/04/12 13:25:15;;;;;;;5.57;1.25;;;;;;;;;;4975638;28;20506;-87
2021/04/12 13:27:41;;;;;;;4.40;1.30;;;;;;;;;;4974275;28;20026;-82
2021/04/12 13:30:09;;;;;;;5.72;1.25;;;;;;;;;;4978007;28;20038;-80
2021/04/12 13:32:38;;;;;;;6.60;1.58;;;;;;;;;;4993686;28;20029;-79
2021/04/12 13:35:04;;;;;;;4.65;1.48;;;;;;;;;;4994339;28;20026;-78
2021/04/12 13:37:37;;;;;;;2.90;1.10;;;;;;;;;;5011771;28;20076;-88
2021/04/12 13:40:08;;;;;;;5.15;1.48;;;;;;;;;;4978632;28;20130;-82
2021/04/12 13:42:36;;;;;;;7.20;1.65;;;;;;;;;;4991587;28;20031;-83
2021/04/12 13:45:05;;;;;;;4.90;1.20;;;;;;;;;;4974417;28;20022;-74
2021/04/12 13:47:34;;;;;;;3.28;1.30;;;;;;;;;;4974116;28;20030;-81
2021/04/12 13:50:09;;;;;;;3.63;1.25;;;;;;;;;;4991823;28;20061;-78
2021/04/12 13:52:35;;;;;;;4.25;1.73;;;;;;;;;;4991325;28;20105;-84
2021/04/12 13:55:09;;;;;;;3.28;1.00;;;;;;;;;;4992866;28;20507;-78
2021/04/12 13:57:48;;;;;;;3.70;1.27;;;;;;;;;;4997502;28;20051;-77
2021/04/12 14:00:17;;;;;;;4.05;1.30;;;;;;;;;;4989419;28;20086;-81
2021/04/12 14:02:49;;;;;;;3.83;1.40;;;;;;;;;;4987100;28;20583;-78
2021/04/12 14:05:25;;;;;;;3.45;1.08;;;;;;;;;;4989851;28;20077;-77
2021/04/12 14:07:51;;;;;;;6.00;1.30;;;;;;;;;;4974204;28;20034;-83
2021/04/12 14:10:45;;;;;;;3.97;1.30;;;;;;;;;;4974575;28;20026;-83
2021/04/12 14:13:37;;;;;;;3.83;1.02;;;;;;;;;;4974956;28;20417;-81
2021/04/12 14:16:06;;;;;;;5.05;1.48;;;;;;;;;;4974872;28;20131;-81
2021/04/12 14:18:40;;;;;;;3.70;1.10;;;;;;;;;;4995492;28;20041;-77
2021/04/12 14:21:09;;;;;;;6.78;1.55;;;;;;;;;;4977225;28;20093;-92
2021/04/12 14:23:40;;;;;;;4.68;1.40;;;;;;;;;;4994429;28;20053;-83
2021/04/12 14:26:12;;;;;;;3.65;1.23;;;;;;;;;;4973691;28;20029;-80
2021/04/12 14:28:43;;;;;;;2.65;1.35;;;;;;;;;;4975938;28;20027;-86
2021/04/12 14:31:19;;;;;;;5.03;1.50;;;;;;;;;;4997792;28;20026;-92
2021/04/12 14:33:46;;;;;;;3.10;1.20;;;;;;;;;;4995420;28;20277;-75
2021/04/12 14:36:12;;;;;;;4.53;1.10;;;;;;;;;;4994781;28;20042;-77
2021/04/12 14:38:44;;;;;;;10.77;1.50;;;;;;;;;;4977183;28;20065;-79
2021/04/12 14:41:25;;;;;;;6.07;1.40;;;;;;;;;;4994930;28;20034;-75
2021/04/12 14:44:14;;;;;;;7.75;1.75;;;;;;;;;;4979898;28;20034;-79
2021/04/12 14:46:48;;;;;;;3.50;1.20;;;;;;;;;;4991549;28;20030;-85
2021/04/12 14:49:15;;;;;;;5.85;1.50;;;;;;;;;;4994125;28;20034;-79
2021/04/12 14:51:50;;;;;;;5.70;1.58;;;;;;;;;;4981856;28;20026;-79
2021/04/12 14:54:38;;;;;;;6.68;1.30;;;;;;;;;;4999026;28;20022;-79
2021/04/12 14:57:06;;;;;;;7.38;1.67;;;;;;;;;;4994758;28;20073;-81
2021/04/12 14:59:44;;;;;;;3.63;1.00;;;;;;;;;;4995251;28;20022;-78
2021/04/12 15:02:21;;;;;;;4.10;1.50;;;;;;;;;;4995270;28;20037;-79
2021/04/12 15:04:55;;;;;;;4.30;1.58;;;;;;;;;;4995009;28;20018;-73
2021/04/12 15:07:21;;;;;;;6.90;1.23;;;;;;;;;;4977638;28;20022;-76
2021/04/12 15:09:56;;;;;;;4.70;1.25;;;;;;;;;;4993776;28;20101;-73
2021/04/12 15:12:23;;;;;;;4.85;1.50;;;;;;;;;;4994454;28;20030;-78
2021/04/12 15:14:53;;;;;;;2.55;1.15;;;;;;;;;;4977811;28;20054;-80
2021/04/12 15:17:24;;;;;;;5.45;1.33;;;;;;;;;;4976180;28;20069;-75
2021/04/12 15:19:57;;;;;;;3.93;1.30;;;;;;;;;;4994212;28;20022;-80
2021/04/12 15:22:30;;;;;;;5.85;1.15;;;;;;;;;;4994109;28;20321;-74
2021/04/12 15:25:03;;;;;;;3.28;1.25;;;;;;;;;;4973826;28;20019;-84
2021/04/12 15:27:29;;;;;;;5.20;1.58;;;;;;;;;;4972994;28;20027;-78